sensor_id;sensor_type;location;lat;lon;timestamp;temperature;humidity
16417;DHT22;8317;52.186;5.688;2023-07-20T00:02:22;17.10;99.90
16417;DHT22;8317;52.186;5.688;2023-07-20T00:04:49;17.00;99.90
16417;DHT22;8317;52.186;5.688;2023-07-20T00:07:16;17.00;99.90
16417;DHT22;8317;52.186;5.688;2023-07-20T00:09:43;17.00;99.90
16417;DHT22;8317;52.186;5.688;2023-07-20T00:12:11;17.00;99.90
16417;DHT22;8317;52.186;5.688;2023-07-20T00:14:38;17.00;99.90
16417;DHT22;8317;52.186;5.688;2023-07-20T00:17:05;17.00;99.90
16417;DHT22;8317;52.186;5.688;2023-07-20T00:19:32;17.00;99.90
16417;DHT22;8317;52.186;5.688;2023-07-20T00:22:00;16.90;99.90
16417;DHT22;8317;52.186;5.688;2023-07-20T00:24:27;16.90;99.90
16417;DHT22;8317;52.186;5.688;2023-07-20T00:26:54;16.80;99.90
16417;DHT22;8317;52.186;5.688;2023-07-20T00:29:22;16.80;99.90
16417;DHT22;8317;52.186;5.688;2023-07-20T00:31:49;16.80;99.90
16417;DHT22;8317;52.186;5.688;2023-07-20T00:34:16;16.80;99.90
16417;DHT22;8317;52.186;5.688;2023-07-20T00:36:43;16.80;99.90
16417;DHT22;8317;52.186;5.688;2023-07-20T00:39:10;16.80;99.90
16417;DHT22;8317;52.186;5.688;2023-07-20T00:41:37;16.80;99.90
16417;DHT22;8317;52.186;5.688;2023-07-20T00:44:04;16.70;99.90
16417;DHT22;8317;52.186;5.688;2023-07-20T00:46:33;16.70;99.90
16417;DHT22;8317;52.186;5.688;2023-07-20T00:49:00;16.70;99.90
16417;DHT22;8317;52.186;5.688;2023-07-20T00:51:27;16.70;99.90
16417;DHT22;8317;52.186;5.688;2023-07-20T00:53:54;16.60;99.90
16417;DHT22;8317;52.186;5.688;2023-07-20T00:56:22;16.60;99.90
16417;DHT22;8317;52.186;5.688;2023-07-20T00:58:49;16.50;99.90
16417;DHT22;8317;52.186;5.688;2023-07-20T01:01:16;16.50;99.90
16417;DHT22;8317;52.186;5.688;2023-07-20T01:03:44;16.50;99.90
16417;DHT22;8317;52.186;5.688;2023-07-20T01:06:18;16.40;99.90
16417;DHT22;8317;52.186;5.688;2023-07-20T01:08:54;16.40;99.90
16417;DHT22;8317;52.186;5.688;2023-07-20T01:11:33;16.30;99.90
16417;DHT22;8317;52.186;5.688;2023-07-20T01:14:03;16.30;99.90
16417;DHT22;8317;52.186;5.688;2023-07-20T01:16:30;16.30;99.90
16417;DHT22;8317;52.186;5.688;2023-07-20T01:18:58;16.30;99.90
16417;DHT22;8317;52.186;5.688;2023-07-20T01:21:31;16.30;99.90
16417;DHT22;8317;52.186;5.688;2023-07-20T01:24:24;16.20;99.90
16417;DHT22;8317;52.186;5.688;2023-07-20T01:30:19;16.10;99.90
16417;DHT22;8317;52.186;5.688;2023-07-20T01:32:54;16.10;99.90
16417;DHT22;8317;52.186;5.688;2023-07-20T01:35:25;16.10;99.90
16417;DHT22;8317;52.186;5.688;2023-07-20T01:37:54;16.10;99.90
16417;DHT22;8317;52.186;5.688;2023-07-20T01:40:22;16.20;99.90
16417;DHT22;8317;52.186;5.688;2023-07-20T01:42:51;16.10;99.90
16417;DHT22;8317;52.186;5.688;2023-07-20T01:45:19;16.10;99.90
16417;DHT22;8317;52.186;5.688;2023-07-20T01:47:46;16.10;99.90
16417;DHT22;8317;52.186;5.688;2023-07-20T01:50:14;16.10;99.90
16417;DHT22;8317;52.186;5.688;2023-07-20T01:52:41;16.10;99.90
16417;DHT22;8317;52.186;5.688;2023-07-20T01:55:08;16.10;99.90
16417;DHT22;8317;52.186;5.688;2023-07-20T01:57:35;16.10;99.90
16417;DHT22;8317;52.186;5.688;2023-07-20T02:00:04;16.10;99.90
16417;DHT22;8317;52.186;5.688;2023-07-20T02:02:32;16.20;99.90
16417;DHT22;8317;52.186;5.688;2023-07-20T02:04:59;16.10;99.90
16417;DHT22;8317;52.186;5.688;2023-07-20T02:07:27;16.20;99.90
16417;DHT22;8317;52.186;5.688;2023-07-20T02:09:54;16.10;99.90
16417;DHT22;8317;52.186;5.688;2023-07-20T02:12:21;16.10;99.90
16417;DHT22;8317;52.186;5.688;2023-07-20T02:14:48;16.00;99.90
16417;DHT22;8317;52.186;5.688;2023-07-20T02:17:16;16.00;99.90
16417;DHT22;8317;52.186;5.688;2023-07-20T02:19:43;15.90;99.90
16417;DHT22;8317;52.186;5.688;2023-07-20T02:22:10;15.80;99.90
16417;DHT22;8317;52.186;5.688;2023-07-20T02:24:39;15.80;99.90
16417;DHT22;8317;52.186;5.688;2023-07-20T02:27:06;15.80;99.90
16417;DHT22;8317;52.186;5.688;2023-07-20T02:29:33;15.70;99.90
16417;DHT22;8317;52.186;5.688;2023-07-20T02:32:01;15.70;99.90
16417;DHT22;8317;52.186;5.688;2023-07-20T02:34:28;15.70;99.90
16417;DHT22;8317;52.186;5.688;2023-07-20T02:36:55;15.60;99.90
16417;DHT22;8317;52.186;5.688;2023-07-20T02:39:24;15.60;99.90
16417;DHT22;8317;52.186;5.688;2023-07-20T02:41:52;15.60;99.90
16417;DHT22;8317;52.186;5.688;2023-07-20T02:44:19;15.50;99.90
16417;DHT22;8317;52.186;5.688;2023-07-20T02:46:46;15.50;99.90
16417;DHT22;8317;52.186;5.688;2023-07-20T02:49:15;15.50;99.90
16417;DHT22;8317;52.186;5.688;2023-07-20T02:51:42;15.50;99.90
16417;DHT22;8317;52.186;5.688;2023-07-20T02:54:08;15.50;99.90
16417;DHT22;8317;52.186;5.688;2023-07-20T02:56:35;15.50;99.90
16417;DHT22;8317;52.186;5.688;2023-07-20T02:59:04;15.50;99.90
16417;DHT22;8317;52.186;5.688;2023-07-20T03:01:30;15.50;99.90
16417;DHT22;8317;52.186;5.688;2023-07-20T03:03:57;15.50;99.90
16417;DHT22;8317;52.186;5.688;2023-07-20T03:06:24;15.40;99.90
16417;DHT22;8317;52.186;5.688;2023-07-20T03:08:51;15.50;99.90
16417;DHT22;8317;52.186;5.688;2023-07-20T03:11:19;15.50;99.90
16417;DHT22;8317;52.186;5.688;2023-07-20T03:13:47;15.50;99.90
16417;DHT22;8317;52.186;5.688;2023-07-20T03:16:18;15.50;99.90
16417;DHT22;8317;52.186;5.688;2023-07-20T03:18:45;15.50;99.90
16417;DHT22;8317;52.186;5.688;2023-07-20T03:21:12;15.40;99.90
16417;DHT22;8317;52.186;5.688;2023-07-20T03:23:40;15.40;99.90
16417;DHT22;8317;52.186;5.688;2023-07-20T03:26:07;15.30;99.90
16417;DHT22;8317;52.186;5.688;2023-07-20T03:28:34;15.30;99.90
16417;DHT22;8317;52.186;5.688;2023-07-20T03:31:01;15.20;99.90
16417;DHT22;8317;52.186;5.688;2023-07-20T03:33:31;15.20;99.90
16417;DHT22;8317;52.186;5.688;2023-07-20T03:35:59;15.20;99.90
16417;DHT22;8317;52.186;5.688;2023-07-20T03:38:26;15.10;99.90
16417;DHT22;8317;52.186;5.688;2023-07-20T03:40:55;15.10;99.90
16417;DHT22;8317;52.186;5.688;2023-07-20T03:43:22;15.10;99.90
16417;DHT22;8317;52.186;5.688;2023-07-20T03:45:49;15.10;99.90
16417;DHT22;8317;52.186;5.688;2023-07-20T03:48:17;15.10;99.90
16417;DHT22;8317;52.186;5.688;2023-07-20T03:50:46;15.10;99.90
16417;DHT22;8317;52.186;5.688;2023-07-20T03:53:13;15.00;99.90
16417;DHT22;8317;52.186;5.688;2023-07-20T03:55:41;15.00;99.90
16417;DHT22;8317;52.186;5.688;2023-07-20T03:58:07;15.00;99.90
16417;DHT22;8317;52.186;5.688;2023-07-20T04:00:35;15.00;99.90
16417;DHT22;8317;52.186;5.688;2023-07-20T04:03:02;15.00;99.90
16417;DHT22;8317;52.186;5.688;2023-07-20T04:05:28;15.00;99.90
16417;DHT22;8317;52.186;5.688;2023-07-20T04:07:57;14.90;99.90
16417;DHT22;8317;52.186;5.688;2023-07-20T04:10:24;14.90;99.90
16417;DHT22;8317;52.186;5.688;2023-07-20T04:12:50;14.90;99.90
16417;DHT22;8317;52.186;5.688;2023-07-20T04:15:17;15.00;99.90
16417;DHT22;8317;52.186;5.688;2023-07-20T04:17:45;15.00;99.90
16417;DHT22;8317;52.186;5.688;2023-07-20T04:20:12;15.00;99.90
16417;DHT22;8317;52.186;5.688;2023-07-20T04:22:39;15.00;99.90
16417;DHT22;8317;52.186;5.688;2023-07-20T04:25:08;15.00;99.90
16417;DHT22;8317;52.186;5.688;2023-07-20T04:27:35;15.00;99.90
16417;DHT22;8317;52.186;5.688;2023-07-20T04:30:03;15.00;99.90
16417;DHT22;8317;52.186;5.688;2023-07-20T04:32:30;15.00;99.90
16417;DHT22;8317;52.186;5.688;2023-07-20T04:34:59;15.00;99.90
16417;DHT22;8317;52.186;5.688;2023-07-20T04:37:26;15.00;99.90
16417;DHT22;8317;52.186;5.688;2023-07-20T04:39:53;15.00;99.90
16417;DHT22;8317;52.186;5.688;2023-07-20T04:42:21;15.10;99.90
16417;DHT22;8317;52.186;5.688;2023-07-20T04:44:48;15.10;99.90
16417;DHT22;8317;52.186;5.688;2023-07-20T04:47:15;15.10;99.90
16417;DHT22;8317;52.186;5.688;2023-07-20T04:49:42;15.10;99.90
16417;DHT22;8317;52.186;5.688;2023-07-20T04:52:08;15.10;99.90
16417;DHT22;8317;52.186;5.688;2023-07-20T04:54:35;15.10;99.90
16417;DHT22;8317;52.186;5.688;2023-07-20T04:57:02;15.10;99.90
16417;DHT22;8317;52.186;5.688;2023-07-20T04:59:33;15.10;99.90
16417;DHT22;8317;52.186;5.688;2023-07-20T05:01:59;15.20;99.90
16417;DHT22;8317;52.186;5.688;2023-07-20T05:04:26;15.30;99.90
16417;DHT22;8317;52.186;5.688;2023-07-20T05:06:53;15.30;99.90
16417;DHT22;8317;52.186;5.688;2023-07-20T05:09:20;15.30;99.90
16417;DHT22;8317;52.186;5.688;2023-07-20T05:11:48;15.40;99.90
16417;DHT22;8317;52.186;5.688;2023-07-20T05:14:15;15.40;99.90
16417;DHT22;8317;52.186;5.688;2023-07-20T05:16:43;15.50;99.90
16417;DHT22;8317;52.186;5.688;2023-07-20T05:19:10;15.70;99.90
16417;DHT22;8317;52.186;5.688;2023-07-20T05:21:37;15.80;99.90
16417;DHT22;8317;52.186;5.688;2023-07-20T05:24:05;15.80;99.90
16417;DHT22;8317;52.186;5.688;2023-07-20T05:26:32;15.80;99.90
16417;DHT22;8317;52.186;5.688;2023-07-20T05:28:59;15.80;99.90
16417;DHT22;8317;52.186;5.688;2023-07-20T05:31:26;15.90;99.90
16417;DHT22;8317;52.186;5.688;2023-07-20T05:33:57;15.90;99.90
16417;DHT22;8317;52.186;5.688;2023-07-20T05:36:24;15.90;99.90
16417;DHT22;8317;52.186;5.688;2023-07-20T05:38:51;16.00;99.90
16417;DHT22;8317;52.186;5.688;2023-07-20T05:41:18;16.00;99.90
16417;DHT22;8317;52.186;5.688;2023-07-20T05:43:45;16.00;99.90
16417;DHT22;8317;52.186;5.688;2023-07-20T05:46:12;16.10;99.90
16417;DHT22;8317;52.186;5.688;2023-07-20T05:48:39;16.20;99.90
16417;DHT22;8317;52.186;5.688;2023-07-20T05:51:08;16.30;99.90
16417;DHT22;8317;52.186;5.688;2023-07-20T05:53:35;16.30;99.90
16417;DHT22;8317;52.186;5.688;2023-07-20T05:56:02;16.30;99.90
16417;DHT22;8317;52.186;5.688;2023-07-20T05:58:29;16.40;99.90
16417;DHT22;8317;52.186;5.688;2023-07-20T06:00:57;16.50;99.90
16417;DHT22;8317;52.186;5.688;2023-07-20T06:03:23;16.60;99.90
16417;DHT22;8317;52.186;5.688;2023-07-20T06:05:50;16.80;99.90
16417;DHT22;8317;52.186;5.688;2023-07-20T06:08:19;16.90;99.90
16417;DHT22;8317;52.186;5.688;2023-07-20T06:10:50;17.10;99.90
16417;DHT22;8317;52.186;5.688;2023-07-20T06:13:17;17.30;99.90
16417;DHT22;8317;52.186;5.688;2023-07-20T06:15:44;17.50;99.90
16417;DHT22;8317;52.186;5.688;2023-07-20T06:18:11;17.60;99.90
16417;DHT22;8317;52.186;5.688;2023-07-20T06:20:38;17.80;99.90
16417;DHT22;8317;52.186;5.688;2023-07-20T06:23:05;18.00;99.90
16417;DHT22;8317;52.186;5.688;2023-07-20T06:25:33;18.20;99.90
16417;DHT22;8317;52.186;5.688;2023-07-20T06:28:00;18.30;99.90
16417;DHT22;8317;52.186;5.688;2023-07-20T06:30:27;18.20;99.90
16417;DHT22;8317;52.186;5.688;2023-07-20T06:32:58;18.30;99.90
16417;DHT22;8317;52.186;5.688;2023-07-20T06:35:25;18.40;99.90
16417;DHT22;8317;52.186;5.688;2023-07-20T06:37:53;18.30;99.90
16417;DHT22;8317;52.186;5.688;2023-07-20T06:40:21;18.40;99.90
16417;DHT22;8317;52.186;5.688;2023-07-20T06:42:49;18.60;99.90
16417;DHT22;8317;52.186;5.688;2023-07-20T06:45:16;18.80;99.90
16417;DHT22;8317;52.186;5.688;2023-07-20T06:47:43;18.90;99.90
16417;DHT22;8317;52.186;5.688;2023-07-20T06:50:11;18.90;99.90
16417;DHT22;8317;52.186;5.688;2023-07-20T06:52:37;18.90;99.90
16417;DHT22;8317;52.186;5.688;2023-07-20T06:55:06;19.10;99.90
16417;DHT22;8317;52.186;5.688;2023-07-20T06:57:33;19.40;99.90
16417;DHT22;8317;52.186;5.688;2023-07-20T07:00:02;19.50;99.90
16417;DHT22;8317;52.186;5.688;2023-07-20T07:02:32;19.50;99.90
16417;DHT22;8317;52.186;5.688;2023-07-20T07:04:59;19.50;99.90
16417;DHT22;8317;52.186;5.688;2023-07-20T07:07:26;19.60;99.90
16417;DHT22;8317;52.186;5.688;2023-07-20T07:09:53;19.70;99.90
16417;DHT22;8317;52.186;5.688;2023-07-20T07:12:20;19.70;99.90
16417;DHT22;8317;52.186;5.688;2023-07-20T07:14:47;19.60;99.90
16417;DHT22;8317;52.186;5.688;2023-07-20T07:17:15;19.30;99.90
16417;DHT22;8317;52.186;5.688;2023-07-20T07:19:42;19.00;99.90
16417;DHT22;8317;52.186;5.688;2023-07-20T07:22:10;18.80;99.90
16417;DHT22;8317;52.186;5.688;2023-07-20T07:24:37;18.80;99.90
16417;DHT22;8317;52.186;5.688;2023-07-20T07:27:06;18.90;99.90
16417;DHT22;8317;52.186;5.688;2023-07-20T07:29:33;19.20;99.90
16417;DHT22;8317;52.186;5.688;2023-07-20T07:31:59;19.60;99.90
16417;DHT22;8317;52.186;5.688;2023-07-20T07:34:28;20.00;99.90
16417;DHT22;8317;52.186;5.688;2023-07-20T07:36:55;20.20;99.90
16417;DHT22;8317;52.186;5.688;2023-07-20T07:39:22;20.40;99.90
16417;DHT22;8317;52.186;5.688;2023-07-20T07:41:49;20.60;99.90
16417;DHT22;8317;52.186;5.688;2023-07-20T07:44:17;20.80;99.90
16417;DHT22;8317;52.186;5.688;2023-07-20T07:46:44;21.00;99.90
16417;DHT22;8317;52.186;5.688;2023-07-20T07:49:11;21.10;99.90
16417;DHT22;8317;52.186;5.688;2023-07-20T07:51:39;20.70;99.90
16417;DHT22;8317;52.186;5.688;2023-07-20T07:54:06;20.60;99.90
16417;DHT22;8317;52.186;5.688;2023-07-20T07:56:33;21.00;99.90
16417;DHT22;8317;52.186;5.688;2023-07-20T07:59:00;21.00;99.90
16417;DHT22;8317;52.186;5.688;2023-07-20T08:01:28;21.10;99.90
16417;DHT22;8317;52.186;5.688;2023-07-20T08:03:55;20.80;99.90
16417;DHT22;8317;52.186;5.688;2023-07-20T08:06:22;20.90;99.90
16417;DHT22;8317;52.186;5.688;2023-07-20T08:08:51;21.00;99.90
16417;DHT22;8317;52.186;5.688;2023-07-20T08:11:18;21.20;99.90
16417;DHT22;8317;52.186;5.688;2023-07-20T08:13:45;21.40;99.90
16417;DHT22;8317;52.186;5.688;2023-07-20T08:16:12;21.40;99.90
16417;DHT22;8317;52.186;5.688;2023-07-20T08:18:39;21.50;99.90
16417;DHT22;8317;52.186;5.688;2023-07-20T08:21:06;21.60;99.90
16417;DHT22;8317;52.186;5.688;2023-07-20T08:23:33;21.70;99.90
16417;DHT22;8317;52.186;5.688;2023-07-20T08:26:01;21.80;99.90
16417;DHT22;8317;52.186;5.688;2023-07-20T08:28:28;21.50;99.90
16417;DHT22;8317;52.186;5.688;2023-07-20T08:30:55;21.60;99.90
16417;DHT22;8317;52.186;5.688;2023-07-20T08:33:22;21.70;99.90
16417;DHT22;8317;52.186;5.688;2023-07-20T08:35:49;21.50;99.90
16417;DHT22;8317;52.186;5.688;2023-07-20T08:38:16;21.40;99.90
16417;DHT22;8317;52.186;5.688;2023-07-20T08:40:45;21.20;99.90
16417;DHT22;8317;52.186;5.688;2023-07-20T08:43:14;21.70;99.90
16417;DHT22;8317;52.186;5.688;2023-07-20T08:45:42;21.60;99.90
16417;DHT22;8317;52.186;5.688;2023-07-20T08:48:10;21.70;99.90
16417;DHT22;8317;52.186;5.688;2023-07-20T08:50:38;22.00;99.90
16417;DHT22;8317;52.186;5.688;2023-07-20T08:53:05;22.20;99.90
16417;DHT22;8317;52.186;5.688;2023-07-20T08:55:33;22.50;99.90
16417;DHT22;8317;52.186;5.688;2023-07-20T08:58:01;22.70;99.90
16417;DHT22;8317;52.186;5.688;2023-07-20T09:00:30;22.30;99.90
16417;DHT22;8317;52.186;5.688;2023-07-20T09:02:57;22.60;99.90
16417;DHT22;8317;52.186;5.688;2023-07-20T09:05:26;22.30;99.90
16417;DHT22;8317;52.186;5.688;2023-07-20T09:07:53;22.40;99.90
16417;DHT22;8317;52.186;5.688;2023-07-20T09:10:21;22.50;99.90
16417;DHT22;8317;52.186;5.688;2023-07-20T09:12:48;22.80;99.90
16417;DHT22;8317;52.186;5.688;2023-07-20T09:15:15;23.00;99.90
16417;DHT22;8317;52.186;5.688;2023-07-20T09:17:47;22.60;99.90
16417;DHT22;8317;52.186;5.688;2023-07-20T09:20:15;22.90;99.90
16417;DHT22;8317;52.186;5.688;2023-07-20T09:22:43;22.80;99.90
16417;DHT22;8317;52.186;5.688;2023-07-20T09:25:11;22.70;99.90
16417;DHT22;8317;52.186;5.688;2023-07-20T09:27:40;22.90;99.90
16417;DHT22;8317;52.186;5.688;2023-07-20T09:30:08;22.50;99.90
16417;DHT22;8317;52.186;5.688;2023-07-20T09:32:40;22.30;99.90
16417;DHT22;8317;52.186;5.688;2023-07-20T09:35:14;21.90;99.90
16417;DHT22;8317;52.186;5.688;2023-07-20T09:37:46;21.70;99.90
16417;DHT22;8317;52.186;5.688;2023-07-20T09:40:15;22.00;99.90
16417;DHT22;8317;52.186;5.688;2023-07-20T09:42:43;22.00;99.90
16417;DHT22;8317;52.186;5.688;2023-07-20T09:45:10;22.30;99.90
16417;DHT22;8317;52.186;5.688;2023-07-20T09:47:38;23.00;99.90
16417;DHT22;8317;52.186;5.688;2023-07-20T09:50:06;23.40;99.90
16417;DHT22;8317;52.186;5.688;2023-07-20T09:52:38;23.40;99.90
16417;DHT22;8317;52.186;5.688;2023-07-20T09:55:06;23.10;99.90
16417;DHT22;8317;52.186;5.688;2023-07-20T09:57:34;23.10;99.90
16417;DHT22;8317;52.186;5.688;2023-07-20T10:00:02;23.00;99.90
16417;DHT22;8317;52.186;5.688;2023-07-20T10:02:34;22.70;99.90
16417;DHT22;8317;52.186;5.688;2023-07-20T10:05:04;22.90;99.90
16417;DHT22;8317;52.186;5.688;2023-07-20T10:07:31;22.60;99.90
16417;DHT22;8317;52.186;5.688;2023-07-20T10:10:02;22.70;99.90
16417;DHT22;8317;52.186;5.688;2023-07-20T10:12:31;23.30;99.90
16417;DHT22;8317;52.186;5.688;2023-07-20T10:15:10;23.40;99.90
16417;DHT22;8317;52.186;5.688;2023-07-20T10:17:43;23.90;99.90
16417;DHT22;8317;52.186;5.688;2023-07-20T10:20:16;24.00;99.90
16417;DHT22;8317;52.186;5.688;2023-07-20T10:22:48;23.90;99.90
16417;DHT22;8317;52.186;5.688;2023-07-20T10:25:18;24.20;99.90
16417;DHT22;8317;52.186;5.688;2023-07-20T10:27:47;23.70;99.90
16417;DHT22;8317;52.186;5.688;2023-07-20T10:30:15;23.20;99.90
16417;DHT22;8317;52.186;5.688;2023-07-20T10:32:44;23.00;99.90
16417;DHT22;8317;52.186;5.688;2023-07-20T10:35:13;23.40;99.90
16417;DHT22;8317;52.186;5.688;2023-07-20T10:37:50;23.50;99.90
16417;DHT22;8317;52.186;5.688;2023-07-20T10:40:37;23.80;99.90
16417;DHT22;8317;52.186;5.688;2023-07-20T10:43:05;24.50;99.90
16417;DHT22;8317;52.186;5.688;2023-07-20T10:45:41;24.60;99.90
16417;DHT22;8317;52.186;5.688;2023-07-20T10:48:18;24.30;99.90
16417;DHT22;8317;52.186;5.688;2023-07-20T10:53:28;24.70;99.90
16417;DHT22;8317;52.186;5.688;2023-07-20T10:56:08;24.30;99.90
16417;DHT22;8317;52.186;5.688;2023-07-20T10:58:35;24.60;99.90
16417;DHT22;8317;52.186;5.688;2023-07-20T11:01:03;24.80;99.90
16417;DHT22;8317;52.186;5.688;2023-07-20T11:03:34;24.90;99.90
16417;DHT22;8317;52.186;5.688;2023-07-20T11:06:29;25.00;99.90
16417;DHT22;8317;52.186;5.688;2023-07-20T11:09:09;25.20;99.90
16417;DHT22;8317;52.186;5.688;2023-07-20T11:11:42;25.30;99.90
16417;DHT22;8317;52.186;5.688;2023-07-20T11:14:14;25.10;99.90
16417;DHT22;8317;52.186;5.688;2023-07-20T11:16:47;24.40;99.90
16417;DHT22;8317;52.186;5.688;2023-07-20T11:19:17;24.40;99.90
16417;DHT22;8317;52.186;5.688;2023-07-20T11:21:45;24.80;99.90
16417;DHT22;8317;52.186;5.688;2023-07-20T11:24:12;24.90;99.90
16417;DHT22;8317;52.186;5.688;2023-07-20T11:26:43;25.20;99.90
16417;DHT22;8317;52.186;5.688;2023-07-20T11:29:10;25.40;99.90
16417;DHT22;8317;52.186;5.688;2023-07-20T11:31:38;25.70;99.90
16417;DHT22;8317;52.186;5.688;2023-07-20T11:34:05;25.60;99.90
16417;DHT22;8317;52.186;5.688;2023-07-20T11:36:33;25.30;99.90
16417;DHT22;8317;52.186;5.688;2023-07-20T11:39:00;25.40;99.90
16417;DHT22;8317;52.186;5.688;2023-07-20T11:41:30;25.10;99.90
16417;DHT22;8317;52.186;5.688;2023-07-20T11:43:59;25.00;99.90
16417;DHT22;8317;52.186;5.688;2023-07-20T11:46:27;24.80;99.90
16417;DHT22;8317;52.186;5.688;2023-07-20T11:48:57;24.20;99.90
16417;DHT22;8317;52.186;5.688;2023-07-20T11:51:26;24.20;99.90
16417;DHT22;8317;52.186;5.688;2023-07-20T11:53:53;24.30;99.90
16417;DHT22;8317;52.186;5.688;2023-07-20T11:56:21;24.80;99.90
16417;DHT22;8317;52.186;5.688;2023-07-20T11:58:48;24.80;99.90
16417;DHT22;8317;52.186;5.688;2023-07-20T12:01:17;24.30;99.90
16417;DHT22;8317;52.186;5.688;2023-07-20T12:03:47;24.60;99.90
16417;DHT22;8317;52.186;5.688;2023-07-20T12:06:14;24.40;99.90
16417;DHT22;8317;52.186;5.688;2023-07-20T12:08:42;24.40;99.90
16417;DHT22;8317;52.186;5.688;2023-07-20T12:11:10;24.00;99.90
16417;DHT22;8317;52.186;5.688;2023-07-20T12:13:38;24.00;99.90
16417;DHT22;8317;52.186;5.688;2023-07-20T12:16:12;24.30;99.90
16417;DHT22;8317;52.186;5.688;2023-07-20T12:18:41;24.20;99.90
16417;DHT22;8317;52.186;5.688;2023-07-20T12:21:09;24.20;99.90
16417;DHT22;8317;52.186;5.688;2023-07-20T12:23:37;23.90;99.90
16417;DHT22;8317;52.186;5.688;2023-07-20T12:26:07;23.80;99.90
16417;DHT22;8317;52.186;5.688;2023-07-20T12:28:38;23.80;99.90
16417;DHT22;8317;52.186;5.688;2023-07-20T12:31:06;23.90;99.90
16417;DHT22;8317;52.186;5.688;2023-07-20T12:33:33;24.10;99.90
16417;DHT22;8317;52.186;5.688;2023-07-20T12:36:02;24.00;99.90
16417;DHT22;8317;52.186;5.688;2023-07-20T12:38:29;24.10;99.90
16417;DHT22;8317;52.186;5.688;2023-07-20T12:40:56;24.00;99.90
16417;DHT22;8317;52.186;5.688;2023-07-20T12:43:24;24.20;99.90
16417;DHT22;8317;52.186;5.688;2023-07-20T12:45:51;24.40;99.90
16417;DHT22;8317;52.186;5.688;2023-07-20T12:48:18;24.40;99.90
16417;DHT22;8317;52.186;5.688;2023-07-20T12:50:45;24.20;99.90
16417;DHT22;8317;52.186;5.688;2023-07-20T12:53:13;23.70;99.90
16417;DHT22;8317;52.186;5.688;2023-07-20T12:55:40;24.00;99.90
16417;DHT22;8317;52.186;5.688;2023-07-20T12:58:08;23.90;99.90
16417;DHT22;8317;52.186;5.688;2023-07-20T13:00:35;24.00;99.90
16417;DHT22;8317;52.186;5.688;2023-07-20T13:03:02;24.40;99.90
16417;DHT22;8317;52.186;5.688;2023-07-20T13:05:30;24.20;99.90
16417;DHT22;8317;52.186;5.688;2023-07-20T13:08:03;24.20;99.90
16417;DHT22;8317;52.186;5.688;2023-07-20T13:10:32;24.50;99.90
16417;DHT22;8317;52.186;5.688;2023-07-20T13:12:59;24.80;99.90
16417;DHT22;8317;52.186;5.688;2023-07-20T13:15:30;24.60;99.90
16417;DHT22;8317;52.186;5.688;2023-07-20T13:17:58;24.20;99.90
16417;DHT22;8317;52.186;5.688;2023-07-20T13:20:26;24.10;99.90
16417;DHT22;8317;52.186;5.688;2023-07-20T13:22:53;23.80;99.90
16417;DHT22;8317;52.186;5.688;2023-07-20T13:25:20;23.70;99.90
16417;DHT22;8317;52.186;5.688;2023-07-20T13:27:48;23.50;99.90
16417;DHT22;8317;52.186;5.688;2023-07-20T13:30:15;23.50;99.90
16417;DHT22;8317;52.186;5.688;2023-07-20T13:32:43;23.60;99.90
16417;DHT22;8317;52.186;5.688;2023-07-20T13:35:10;23.70;99.90
16417;DHT22;8317;52.186;5.688;2023-07-20T13:37:37;23.80;99.90
16417;DHT22;8317;52.186;5.688;2023-07-20T13:40:06;23.80;99.90
16417;DHT22;8317;52.186;5.688;2023-07-20T13:42:37;23.90;99.90
16417;DHT22;8317;52.186;5.688;2023-07-20T13:45:06;24.10;99.90
16417;DHT22;8317;52.186;5.688;2023-07-20T13:47:33;24.20;99.90
16417;DHT22;8317;52.186;5.688;2023-07-20T13:50:00;24.30;99.90
16417;DHT22;8317;52.186;5.688;2023-07-20T13:52:27;24.40;99.90
16417;DHT22;8317;52.186;5.688;2023-07-20T13:54:54;24.30;99.90
16417;DHT22;8317;52.186;5.688;2023-07-20T13:57:21;24.30;99.90
16417;DHT22;8317;52.186;5.688;2023-07-20T13:59:48;24.00;99.90
16417;DHT22;8317;52.186;5.688;2023-07-20T14:02:16;23.80;99.90
16417;DHT22;8317;52.186;5.688;2023-07-20T14:04:43;23.80;99.90
16417;DHT22;8317;52.186;5.688;2023-07-20T14:07:10;23.80;99.90
16417;DHT22;8317;52.186;5.688;2023-07-20T14:09:38;23.70;99.90
16417;DHT22;8317;52.186;5.688;2023-07-20T14:12:06;23.50;99.90
16417;DHT22;8317;52.186;5.688;2023-07-20T14:14:32;23.40;99.90
16417;DHT22;8317;52.186;5.688;2023-07-20T14:16:59;23.30;99.90
16417;DHT22;8317;52.186;5.688;2023-07-20T14:19:27;23.20;99.90
16417;DHT22;8317;52.186;5.688;2023-07-20T14:21:54;23.30;99.90
16417;DHT22;8317;52.186;5.688;2023-07-20T14:24:21;23.20;99.90
16417;DHT22;8317;52.186;5.688;2023-07-20T14:26:48;23.40;99.90
16417;DHT22;8317;52.186;5.688;2023-07-20T14:29:14;23.40;99.90
16417;DHT22;8317;52.186;5.688;2023-07-20T14:31:43;23.40;99.90
16417;DHT22;8317;52.186;5.688;2023-07-20T14:34:10;23.40;99.90
16417;DHT22;8317;52.186;5.688;2023-07-20T14:36:39;23.50;99.90
16417;DHT22;8317;52.186;5.688;2023-07-20T14:39:06;23.30;99.90
16417;DHT22;8317;52.186;5.688;2023-07-20T14:41:33;23.40;99.90
16417;DHT22;8317;52.186;5.688;2023-07-20T14:44:00;23.20;99.90
16417;DHT22;8317;52.186;5.688;2023-07-20T14:46:27;23.30;99.90
16417;DHT22;8317;52.186;5.688;2023-07-20T14:48:54;23.40;99.90
16417;DHT22;8317;52.186;5.688;2023-07-20T14:51:21;23.50;99.90
16417;DHT22;8317;52.186;5.688;2023-07-20T14:53:49;23.20;99.90
16417;DHT22;8317;52.186;5.688;2023-07-20T14:56:16;23.10;99.90
16417;DHT22;8317;52.186;5.688;2023-07-20T14:58:43;22.90;99.90
16417;DHT22;8317;52.186;5.688;2023-07-20T15:01:10;22.90;99.90
16417;DHT22;8317;52.186;5.688;2023-07-20T15:03:37;23.00;99.90
16417;DHT22;8317;52.186;5.688;2023-07-20T15:06:04;23.00;99.90
16417;DHT22;8317;52.186;5.688;2023-07-20T15:08:31;23.00;99.90
16417;DHT22;8317;52.186;5.688;2023-07-20T15:10:59;22.90;99.90
16417;DHT22;8317;52.186;5.688;2023-07-20T15:13:26;22.90;99.90
16417;DHT22;8317;52.186;5.688;2023-07-20T15:15:53;23.00;99.90
16417;DHT22;8317;52.186;5.688;2023-07-20T15:18:20;23.20;99.90
16417;DHT22;8317;52.186;5.688;2023-07-20T15:20:47;23.20;99.90
16417;DHT22;8317;52.186;5.688;2023-07-20T15:23:19;23.10;99.90
16417;DHT22;8317;52.186;5.688;2023-07-20T15:25:45;23.10;99.90
16417;DHT22;8317;52.186;5.688;2023-07-20T15:28:14;23.20;99.90
16417;DHT22;8317;52.186;5.688;2023-07-20T15:30:40;23.30;99.90
16417;DHT22;8317;52.186;5.688;2023-07-20T15:33:07;23.30;99.90
16417;DHT22;8317;52.186;5.688;2023-07-20T15:35:34;23.30;99.90
16417;DHT22;8317;52.186;5.688;2023-07-20T15:38:01;23.20;99.90
16417;DHT22;8317;52.186;5.688;2023-07-20T15:40:28;23.30;99.90
16417;DHT22;8317;52.186;5.688;2023-07-20T15:42:55;23.30;99.90
16417;DHT22;8317;52.186;5.688;2023-07-20T15:45:23;23.30;99.90
16417;DHT22;8317;52.186;5.688;2023-07-20T15:47:50;23.20;99.90
16417;DHT22;8317;52.186;5.688;2023-07-20T15:50:17;23.20;99.90
16417;DHT22;8317;52.186;5.688;2023-07-20T15:52:44;23.20;99.90
16417;DHT22;8317;52.186;5.688;2023-07-20T15:55:11;22.90;99.90
16417;DHT22;8317;52.186;5.688;2023-07-20T15:57:38;22.80;99.90